createdAt,value
2022-12-18T00:01:07.216Z,75.43
2022-12-18T00:03:34.325Z,61.83
2022-12-18T00:06:00.995Z,77.40
2022-12-18T00:08:27.421Z,69.15
2022-12-18T00:10:53.915Z,80.90
2022-12-18T00:13:26.294Z,69.60
2022-12-18T00:15:54.414Z,68.97
2022-12-18T00:18:23.307Z,73.95
2022-12-18T00:20:49.715Z,90.72
2022-12-18T00:23:16.163Z,82.57
2022-12-18T00:25:42.574Z,91.45
2022-12-18T00:28:09.061Z,69.65
2022-12-18T00:30:35.502Z,63.70
2022-12-18T00:33:01.957Z,70.13
2022-12-18T00:35:28.540Z,67.82
2022-12-18T00:37:55.024Z,71.47
2022-12-18T00:40:23.385Z,86.63
2022-12-18T00:42:58.950Z,85.32
2022-12-18T00:45:30.410Z,82.35
2022-12-18T00:47:57.520Z,66.15
2022-12-18T00:50:24.851Z,62.85
2022-12-18T00:52:51.581Z,85.90
2022-12-18T00:55:18.784Z,102.45
2022-12-18T00:57:47.100Z,64.95
2022-12-18T01:00:14.948Z,74.53
2022-12-18T01:02:42.307Z,72.25
2022-12-18T01:05:09.495Z,72.60
2022-12-18T01:07:36.022Z,79.13
2022-12-18T01:10:03.840Z,63.33
2022-12-18T01:12:30.405Z,66.68
2022-12-18T01:14:56.935Z,70.35
2022-12-18T01:17:23.609Z,84.97
2022-12-18T01:19:50.075Z,81.10
2022-12-18T01:22:16.605Z,90.65
2022-12-18T01:24:44.853Z,73.93
2022-12-18T01:27:11.377Z,71.25
2022-12-18T01:29:39.835Z,85.28
2022-12-18T01:32:06.365Z,69.53
2022-12-18T01:34:32.886Z,70.68
2022-12-18T01:36:59.412Z,81.07
2022-12-18T01:39:26.346Z,62.75
2022-12-18T01:42:05.152Z,64.15
2022-12-18T01:44:50.563Z,72.03
2022-12-18T01:47:28.340Z,84.90
2022-12-18T01:49:55.722Z,65.55
2022-12-18T01:52:22.648Z,76.63
2022-12-18T01:54:50.182Z,91.95
2022-12-18T01:57:16.866Z,84.85
2022-12-18T01:59:43.970Z,75.18
2022-12-18T02:02:10.657Z,69.47
2022-12-18T02:04:37.275Z,79.63
2022-12-18T02:07:16.083Z,74.28
2022-12-18T02:09:47.428Z,81.07
2022-12-18T02:12:31.590Z,77.25
2022-12-18T02:15:03.939Z,84.00
2022-12-18T02:17:53.662Z,68.40
2022-12-18T02:20:33.084Z,81.70
2022-12-18T02:23:00.573Z,59.38
2022-12-18T02:25:44.993Z,95.97
2022-12-18T02:28:14.485Z,86.90
2022-12-18T02:30:41.776Z,81.22
2022-12-18T02:33:09.236Z,69.30
2022-12-18T02:35:36.281Z,64.00
2022-12-18T02:38:04.058Z,77.45
2022-12-18T02:40:33.907Z,72.22
2022-12-18T02:43:18.994Z,70.13
2022-12-18T02:45:54.379Z,71.60
2022-12-18T02:48:23.805Z,71.68
2022-12-18T02:51:09.099Z,84.00
2022-12-18T02:53:44.441Z,70.57
2022-12-18T02:56:22.520Z,63.85
2022-12-18T02:59:10.760Z,73.85
2022-12-18T03:01:42.696Z,77.88
2022-12-18T03:04:19.448Z,72.13
2022-12-18T03:06:49.409Z,76.50
2022-12-18T03:09:22.282Z,74.28
2022-12-18T03:12:21.543Z,78.75
2022-12-18T03:14:50.990Z,81.93
2022-12-18T03:17:18.667Z,82.10
2022-12-18T03:19:46.937Z,92.60
2022-12-18T03:22:14.327Z,87.18
2022-12-18T03:24:46.853Z,67.95
2022-12-18T03:27:15.792Z,57.10
2022-12-18T03:29:48.731Z,62.25
2022-12-18T03:32:27.197Z,60.20
2022-12-18T03:34:56.297Z,74.25
2022-12-18T03:37:23.487Z,73.35
2022-12-18T03:39:52.099Z,60.72
2022-12-18T03:42:41.362Z,66.35
2022-12-18T03:45:17.293Z,47.40
2022-12-18T03:47:56.957Z,60.15
2022-12-18T03:50:34.964Z,64.35
2022-12-18T03:53:06.005Z,55.58
2022-12-18T03:55:34.604Z,55.05
2022-12-18T03:58:05.528Z,71.80
2022-12-18T04:00:42.451Z,64.43
2022-12-18T04:03:11.176Z,78.22
2022-12-18T04:05:43.243Z,62.50
2022-12-18T04:08:10.106Z,55.42
2022-12-18T04:10:40.385Z,77.82
2022-12-18T04:13:07.298Z,46.67
2022-12-18T04:15:36.258Z,45.28
2022-12-18T04:18:04.522Z,58.85
2022-12-18T04:20:38.331Z,51.53
2022-12-18T04:23:05.139Z,64.65
2022-12-18T04:25:32.447Z,55.63
2022-12-18T04:28:08.028Z,51.88
2022-12-18T04:30:35.870Z,62.85
2022-12-18T04:33:02.304Z,59.05
2022-12-18T04:35:31.220Z,59.80
2022-12-18T04:37:57.776Z,61.05
2022-12-18T04:40:24.222Z,72.18
2022-12-18T04:42:51.822Z,58.08
2022-12-18T04:45:18.503Z,72.72
2022-12-18T04:47:45.256Z,54.47
2022-12-18T04:50:11.804Z,64.78
2022-12-18T04:52:38.284Z,61.97
2022-12-18T04:55:04.976Z,61.17
2022-12-18T04:57:31.402Z,55.65
2022-12-18T04:59:57.822Z,49.47
2022-12-18T05:02:24.388Z,47.67
2022-12-18T05:04:50.988Z,61.08
2022-12-18T05:07:17.485Z,86.20
2022-12-18T05:09:43.969Z,50.38
2022-12-18T05:12:11.739Z,49.25
2022-12-18T05:14:38.249Z,61.70
2022-12-18T05:17:04.657Z,62.75
2022-12-18T05:19:31.114Z,54.63
2022-12-18T05:21:57.720Z,40.75
2022-12-18T05:24:24.719Z,55.33
2022-12-18T05:26:51.210Z,67.75
2022-12-18T05:29:17.713Z,52.78
2022-12-18T05:31:44.227Z,59.60
2022-12-18T05:34:11.354Z,51.90
2022-12-18T05:36:38.085Z,53.15
2022-12-18T05:39:04.789Z,55.65
2022-12-18T05:41:32.578Z,47.47
2022-12-18T05:43:59.220Z,44.28
2022-12-18T05:46:25.684Z,77.85
2022-12-18T05:48:52.591Z,57.13
2022-12-18T05:51:20.272Z,49.08
2022-12-18T05:53:47.100Z,56.95
2022-12-18T05:56:15.792Z,54.17
2022-12-18T05:58:42.538Z,57.88
2022-12-18T06:01:13.824Z,52.15
2022-12-18T06:03:40.902Z,52.83
2022-12-18T06:06:17.898Z,45.25
2022-12-18T06:08:46.862Z,55.03
2022-12-18T06:11:14.211Z,62.78
2022-12-18T06:13:40.998Z,79.32
2022-12-18T06:16:08.031Z,53.05
2022-12-18T06:18:35.064Z,43.35
2022-12-18T06:21:01.621Z,56.70
2022-12-18T06:23:28.282Z,66.03
2022-12-18T06:25:55.178Z,62.95
2022-12-18T06:28:21.660Z,78.97
2022-12-18T06:30:49.226Z,66.72
2022-12-18T06:33:16.088Z,56.55
2022-12-18T06:35:42.621Z,62.00
2022-12-18T06:38:09.210Z,54.88
2022-12-18T06:40:37.608Z,65.18
2022-12-18T06:43:04.078Z,61.47
2022-12-18T06:45:30.557Z,57.38
2022-12-18T06:47:57.107Z,51.97
2022-12-18T06:50:23.900Z,68.65
2022-12-18T06:52:50.432Z,70.90
2022-12-18T06:55:17.002Z,88.32
2022-12-18T06:57:43.598Z,72.25
2022-12-18T07:00:10.281Z,55.88
2022-12-18T07:02:36.804Z,63.58
2022-12-18T07:05:10.267Z,74.88
2022-12-18T07:07:37.495Z,59.28
2022-12-18T07:10:04.163Z,52.60
2022-12-18T07:12:30.665Z,84.43
2022-12-18T07:14:57.089Z,77.30
2022-12-18T07:17:23.625Z,79.53
2022-12-18T07:19:50.040Z,74.50
2022-12-18T07:22:16.470Z,75.00
2022-12-18T07:24:42.991Z,73.93
2022-12-18T07:27:09.844Z,89.70
2022-12-18T07:29:36.928Z,70.68
2022-12-18T07:32:04.512Z,50.25
2022-12-18T07:34:31.049Z,69.78
2022-12-18T07:36:57.537Z,61.17
2022-12-18T07:39:23.994Z,54.45
2022-12-18T07:42:10.493Z,69.03
2022-12-18T07:44:40.057Z,58.03
2022-12-18T07:47:10.514Z,54.83
2022-12-18T07:49:38.741Z,60.92
2022-12-18T07:52:05.240Z,63.95
2022-12-18T07:54:31.711Z,73.13
2022-12-18T07:56:58.173Z,64.13
2022-12-18T07:59:24.646Z,69.88
2022-12-18T08:01:51.215Z,67.20
2022-12-18T08:04:17.889Z,70.22
2022-12-18T08:06:47.812Z,66.70
2022-12-18T08:09:15.004Z,64.50
2022-12-18T08:11:41.452Z,54.53
2022-12-18T08:14:07.967Z,70.40
2022-12-18T08:16:34.867Z,101.72
2022-12-18T08:19:01.300Z,110.05
2022-12-18T08:21:28.814Z,119.95
2022-12-18T08:23:56.320Z,102.57
2022-12-18T08:26:23.495Z,68.38
2022-12-18T08:28:50.793Z,86.97
2022-12-18T08:31:17.474Z,73.70
2022-12-18T08:33:44.413Z,70.13
2022-12-18T08:36:11.117Z,59.13
2022-12-18T08:38:37.736Z,82.72
2022-12-18T08:41:07.990Z,71.85
2022-12-18T08:43:53.437Z,66.60
2022-12-18T08:46:20.778Z,84.03
2022-12-18T08:48:47.741Z,97.28
2022-12-18T08:51:14.311Z,81.65
2022-12-18T08:53:41.135Z,64.90
2022-12-18T08:56:08.437Z,76.05
2022-12-18T08:58:34.947Z,96.90
2022-12-18T09:01:02.944Z,78.25
2022-12-18T09:03:29.638Z,71.65
2022-12-18T09:05:56.067Z,86.88
2022-12-18T09:08:22.572Z,84.22
2022-12-18T09:10:49.801Z,96.38
2022-12-18T09:13:17.182Z,90.15
2022-12-18T09:15:50.886Z,252.00
2022-12-18T09:18:18.275Z,84.63
2022-12-18T09:20:45.010Z,99.35
2022-12-18T09:23:12.040Z,101.00
2022-12-18T09:25:38.828Z,102.93
2022-12-18T09:28:15.669Z,92.13
2022-12-18T09:30:43.598Z,102.47
2022-12-18T09:33:10.170Z,104.13
2022-12-18T09:35:37.662Z,113.30
2022-12-18T09:38:04.163Z,95.38
2022-12-18T09:40:35.177Z,110.85
2022-12-18T09:43:04.060Z,106.03
2022-12-18T09:45:35.688Z,100.75
2022-12-18T09:48:02.669Z,108.15
2022-12-18T09:50:39.122Z,115.68
2022-12-18T09:53:07.534Z,104.97
2022-12-18T09:55:38.069Z,117.10
2022-12-18T09:58:13.005Z,109.80
2022-12-18T10:00:39.484Z,98.60
2022-12-18T10:03:13.344Z,103.57
2022-12-18T10:05:39.974Z,125.07
2022-12-18T10:08:21.410Z,115.85
2022-12-18T10:10:49.985Z,116.78
2022-12-18T10:13:30.951Z,125.72
2022-12-18T10:16:09.547Z,118.50
2022-12-18T10:18:51.499Z,113.60
2022-12-18T10:21:20.796Z,118.97
2022-12-18T10:24:10.330Z,128.80
2022-12-18T10:26:36.858Z,114.60
2022-12-18T10:29:05.994Z,121.28
2022-12-18T10:31:32.736Z,123.93
2022-12-18T10:33:59.241Z,110.97
2022-12-18T10:36:26.073Z,116.30
2022-12-18T10:38:52.593Z,119.30
2022-12-18T10:41:19.604Z,101.70
2022-12-18T10:43:48.484Z,125.63
2022-12-18T10:46:16.750Z,107.53
2022-12-18T10:48:49.440Z,115.50
2022-12-18T10:51:27.293Z,113.93
2022-12-18T10:54:00.276Z,108.38
2022-12-18T10:56:28.740Z,107.95
2022-12-18T10:58:59.831Z,111.13
2022-12-18T11:01:27.018Z,117.47
2022-12-18T11:03:57.558Z,98.93
2022-12-18T11:06:26.883Z,106.45
2022-12-18T11:09:13.291Z,98.07
2022-12-18T11:11:41.055Z,96.78
2022-12-18T11:14:19.874Z,93.22
2022-12-18T11:17:23.751Z,93.88
2022-12-18T11:19:35.506Z,132.70
2022-12-18T11:22:03.403Z,85.85
2022-12-18T11:24:29.798Z,87.45
2022-12-18T11:26:59.915Z,102.22
2022-12-18T11:29:46.261Z,97.57
2022-12-18T11:32:15.855Z,116.18
2022-12-18T11:34:43.775Z,109.97
2022-12-18T11:37:10.759Z,90.63
2022-12-18T11:39:37.368Z,84.78
2022-12-18T11:42:10.012Z,74.15
2022-12-18T11:44:55.349Z,100.25
2022-12-18T11:47:38.616Z,81.35
2022-12-18T11:50:12.384Z,87.03
2022-12-18T11:52:40.769Z,96.80
2022-12-18T11:55:26.624Z,93.80
2022-12-18T11:58:02.737Z,83.53
2022-12-18T12:00:29.556Z,98.72
2022-12-18T12:02:56.061Z,115.28
2022-12-18T12:05:28.691Z,133.52
2022-12-18T12:07:58.999Z,95.07
2022-12-18T12:10:25.536Z,98.80
2022-12-18T12:13:00.886Z,120.82
2022-12-18T12:15:36.896Z,113.28
2022-12-18T12:18:14.329Z,108.13
2022-12-18T12:20:40.787Z,119.57
2022-12-18T12:23:15.070Z,95.78
2022-12-18T12:25:47.072Z,132.65
2022-12-18T12:28:21.890Z,97.78
2022-12-18T12:31:03.947Z,122.22
2022-12-18T12:34:01.205Z,115.03
2022-12-18T12:36:36.515Z,111.55
2022-12-18T12:39:07.095Z,101.07
2022-12-18T12:41:53.236Z,114.93
2022-12-18T12:44:23.323Z,99.20
2022-12-18T12:46:50.233Z,116.35
2022-12-18T12:49:18.477Z,92.63
2022-12-18T12:51:47.077Z,105.57
2022-12-18T12:54:18.746Z,120.25
2022-12-18T12:57:00.792Z,103.50
2022-12-18T12:59:29.919Z,102.35
2022-12-18T13:02:17.325Z,90.13
2022-12-18T13:04:50.915Z,100.40
2022-12-18T13:07:24.699Z,88.43
2022-12-18T13:10:09.873Z,93.03
2022-12-18T13:12:56.491Z,84.07
2022-12-18T13:15:24.477Z,90.13
2022-12-18T13:18:14.716Z,92.88
2022-12-18T13:20:43.095Z,122.97
2022-12-18T13:23:24.138Z,116.55
2022-12-18T13:25:58.186Z,119.97
2022-12-18T13:28:33.723Z,115.82
2022-12-18T13:31:01.470Z,93.88
2022-12-18T13:33:30.792Z,95.70
2022-12-18T13:36:10.941Z,85.85
2022-12-18T13:38:41.355Z,109.45
2022-12-18T13:41:08.414Z,104.68
2022-12-18T13:43:38.429Z,110.03
2022-12-18T13:46:05.193Z,99.70
2022-12-18T13:48:37.838Z,103.70
2022-12-18T13:51:06.696Z,110.50
2022-12-18T13:53:43.283Z,114.47
2022-12-18T13:56:10.170Z,112.70
2022-12-18T13:58:36.694Z,328.13
2022-12-18T14:01:05.704Z,129.38
2022-12-18T14:03:32.416Z,114.30
2022-12-18T14:06:17.572Z,131.05
2022-12-18T14:08:45.422Z,135.18
2022-12-18T14:11:20.088Z,125.45
2022-12-18T14:13:48.332Z,124.20
2022-12-18T14:16:15.940Z,115.65
2022-12-18T14:18:56.900Z,126.35
2022-12-18T14:21:33.471Z,115.45
2022-12-18T14:24:15.867Z,128.85
2022-12-18T14:26:45.354Z,154.60
2022-12-18T14:29:32.042Z,129.30
2022-12-18T14:32:05.795Z,112.72
2022-12-18T14:34:32.333Z,139.40
2022-12-18T14:36:58.747Z,119.75
2022-12-18T14:39:26.416Z,129.25
2022-12-18T14:41:54.197Z,155.88
2022-12-18T14:44:22.307Z,141.77
2022-12-18T14:46:50.217Z,140.77
2022-12-18T14:49:22.426Z,126.35
2022-12-18T14:51:50.101Z,135.32
2022-12-18T14:54:17.823Z,154.80
2022-12-18T14:56:45.794Z,142.77
2022-12-18T14:59:24.473Z,132.75
2022-12-18T15:01:51.570Z,124.18
2022-12-18T15:04:36.148Z,124.30
2022-12-18T15:07:23.125Z,126.40
2022-12-18T15:10:04.938Z,119.30
2022-12-18T15:12:35.236Z,137.35
2022-12-18T15:15:01.720Z,135.23
2022-12-18T15:17:28.410Z,143.63
2022-12-18T15:19:59.818Z,136.95
2022-12-18T15:22:26.314Z,148.68
2022-12-18T15:24:53.096Z,148.23
2022-12-18T15:27:25.583Z,126.78
2022-12-18T15:30:10.564Z,144.80
2022-12-18T15:32:37.812Z,138.00
2022-12-18T15:35:23.855Z,118.03
2022-12-18T15:37:51.388Z,110.20
2022-12-18T15:40:25.004Z,144.75
2022-12-18T15:43:12.119Z,134.10
2022-12-18T15:45:38.539Z,120.18
2022-12-18T15:48:23.825Z,140.75
2022-12-18T15:50:54.189Z,123.68
2022-12-18T15:53:20.807Z,110.20
2022-12-18T15:56:06.003Z,127.05
2022-12-18T15:58:33.927Z,135.35
2022-12-18T16:01:01.516Z,128.77
2022-12-18T16:03:28.330Z,122.85
2022-12-18T16:05:55.068Z,123.75
2022-12-18T16:08:22.937Z,118.78
2022-12-18T16:10:49.363Z,130.25
2022-12-18T16:13:17.255Z,129.32
2022-12-18T16:15:43.878Z,133.02
2022-12-18T16:18:10.325Z,121.97
2022-12-18T16:20:36.832Z,140.48
2022-12-18T16:23:03.349Z,143.38
2022-12-18T16:25:29.929Z,117.47
2022-12-18T16:27:56.951Z,133.05
2022-12-18T16:30:28.729Z,116.00
2022-12-18T16:32:59.524Z,125.93
2022-12-18T16:35:26.488Z,126.45
2022-12-18T16:37:53.113Z,120.32
2022-12-18T16:40:19.753Z,135.80
2022-12-18T16:42:46.658Z,122.35
2022-12-18T16:45:14.899Z,128.80
2022-12-18T16:47:41.432Z,121.50
2022-12-18T16:50:08.398Z,126.25
2022-12-18T16:52:35.462Z,127.57
2022-12-18T16:55:02.055Z,118.43
2022-12-18T16:57:28.606Z,123.50
2022-12-18T16:59:58.714Z,123.65
2022-12-18T17:02:28.449Z,117.85
2022-12-18T17:04:56.003Z,141.40
2022-12-18T17:07:23.333Z,156.30
2022-12-18T17:09:51.162Z,143.35
2022-12-18T17:12:17.840Z,113.30
2022-12-18T17:14:44.336Z,133.88
2022-12-18T17:17:26.925Z,132.95
2022-12-18T17:19:53.504Z,123.35
2022-12-18T17:22:20.622Z,135.27
2022-12-18T17:24:47.318Z,119.38
2022-12-18T17:27:14.033Z,101.57
2022-12-18T17:29:46.871Z,121.07
2022-12-18T17:32:14.660Z,121.78
2022-12-18T17:34:41.196Z,124.32
2022-12-18T17:37:08.031Z,92.80
2022-12-18T17:39:34.635Z,82.85
2022-12-18T17:42:01.341Z,95.05
2022-12-18T17:44:28.055Z,90.78
2022-12-18T17:46:54.580Z,112.72
2022-12-18T17:49:21.585Z,109.60
2022-12-18T17:51:48.512Z,103.40
2022-12-18T17:54:14.990Z,121.72
2022-12-18T17:56:41.571Z,117.95
2022-12-18T17:59:08.258Z,122.63
2022-12-18T18:01:38.397Z,147.50
2022-12-18T18:04:09.320Z,142.50
2022-12-18T18:06:39.219Z,114.35
2022-12-18T18:09:08.634Z,103.30
2022-12-18T18:12:00.001Z,99.05
2022-12-18T18:14:27.461Z,108.00
2022-12-18T18:16:54.472Z,97.75
2022-12-18T18:19:23.349Z,117.47
2022-12-18T18:21:52.095Z,108.43
2022-12-18T18:24:20.147Z,115.10
2022-12-18T18:26:47.076Z,139.10
2022-12-18T18:29:21.195Z,123.00
2022-12-18T18:31:48.654Z,123.88
2022-12-18T18:34:21.723Z,100.07
2022-12-18T18:36:48.283Z,108.22
2022-12-18T18:39:15.209Z,111.47
2022-12-18T18:41:47.681Z,105.55
2022-12-18T18:44:15.063Z,112.07
2022-12-18T18:46:41.553Z,120.35
2022-12-18T18:49:08.059Z,105.13
2022-12-18T18:51:35.338Z,86.40
2022-12-18T18:54:02.300Z,93.97
2022-12-18T18:59:15.572Z,98.82
2022-12-18T19:01:42.221Z,107.38
2022-12-18T19:04:08.856Z,86.07
2022-12-18T19:06:35.373Z,98.97
2022-12-18T19:09:04.316Z,93.38
2022-12-18T19:11:49.742Z,97.30
2022-12-18T19:14:17.487Z,90.10
2022-12-18T19:16:45.500Z,146.48
2022-12-18T19:19:12.937Z,106.80
2022-12-18T19:21:40.707Z,98.32
2022-12-18T19:24:07.376Z,76.05
2022-12-18T19:26:34.341Z,90.55
2022-12-18T19:29:02.108Z,86.15
2022-12-18T19:31:34.834Z,89.13
2022-12-18T19:34:02.365Z,98.60
2022-12-18T19:36:29.541Z,82.60
2022-12-18T19:38:57.769Z,90.95
2022-12-18T19:41:25.641Z,255.73
2022-12-18T19:43:54.194Z,101.72
2022-12-18T19:46:21.592Z,102.50
2022-12-18T19:48:48.699Z,123.10
2022-12-18T19:51:19.563Z,82.28
2022-12-18T19:53:46.530Z,78.43
2022-12-18T19:56:14.349Z,97.20
2022-12-18T19:58:41.238Z,94.28
2022-12-18T20:01:11.475Z,99.53
2022-12-18T20:03:40.394Z,98.93
2022-12-18T20:06:10.287Z,80.90
2022-12-18T20:08:37.183Z,100.47
2022-12-18T20:11:03.758Z,80.30
2022-12-18T20:13:30.923Z,81.50
2022-12-18T20:15:57.570Z,81.50
2022-12-18T20:18:24.001Z,85.30
2022-12-18T20:20:50.831Z,80.35
2022-12-18T20:23:18.433Z,80.85
2022-12-18T20:25:45.102Z,89.90
2022-12-18T20:28:11.594Z,83.05
2022-12-18T20:30:38.361Z,79.20
2022-12-18T20:33:04.854Z,81.57
2022-12-18T20:35:34.368Z,77.60
2022-12-18T20:38:01.245Z,81.13
2022-12-18T20:40:28.610Z,90.60
2022-12-18T20:42:55.152Z,89.10
2022-12-18T20:45:21.612Z,79.00
2022-12-18T20:47:48.050Z,85.70
2022-12-18T20:50:14.493Z,92.28
2022-12-18T20:52:40.977Z,97.72
2022-12-18T20:55:07.576Z,88.50
2022-12-18T20:57:34.060Z,69.97
2022-12-18T21:00:01.532Z,89.88
2022-12-18T21:02:28.111Z,85.30
2022-12-18T21:04:54.747Z,85.43
2022-12-18T21:07:21.294Z,80.82
2022-12-18T21:09:47.797Z,101.72
2022-12-18T21:12:45.348Z,85.88
2022-12-18T21:15:16.269Z,68.82
2022-12-18T21:17:44.808Z,72.70
2022-12-18T21:20:17.546Z,70.35
2022-12-18T21:22:44.796Z,110.90
2022-12-18T21:25:11.242Z,86.32
2022-12-18T21:27:37.712Z,74.72
2022-12-18T21:30:04.356Z,65.75
2022-12-18T21:32:33.423Z,64.47
2022-12-18T21:35:00.182Z,84.00
2022-12-18T21:37:26.755Z,74.07
2022-12-18T21:39:53.228Z,78.43
2022-12-18T21:42:38.262Z,95.05
2022-12-18T21:45:05.073Z,85.78
2022-12-18T21:47:31.505Z,86.88
2022-12-18T21:49:58.063Z,81.07
2022-12-18T21:52:32.241Z,86.75
2022-12-18T21:55:09.328Z,81.15
2022-12-18T21:57:37.201Z,76.97
2022-12-18T22:00:04.438Z,65.80
2022-12-18T22:02:38.559Z,77.70
2022-12-18T22:05:05.378Z,73.43
2022-12-18T22:07:32.197Z,77.13
2022-12-18T22:09:58.844Z,62.08
2022-12-18T22:12:37.004Z,75.82
2022-12-18T22:15:11.139Z,59.22
2022-12-18T22:17:39.163Z,62.95
2022-12-18T22:20:05.920Z,70.32
2022-12-18T22:22:32.405Z,69.70
2022-12-18T22:24:58.988Z,54.72
2022-12-18T22:27:25.467Z,69.30
2022-12-18T22:30:04.126Z,76.55
2022-12-18T22:32:31.742Z,66.97
2022-12-18T22:35:08.048Z,70.47
2022-12-18T22:37:37.180Z,75.22
2022-12-18T22:40:04.577Z,60.78
2022-12-18T22:42:32.533Z,64.47
2022-12-18T22:45:00.374Z,54.03
2022-12-18T22:47:30.064Z,76.60
2022-12-18T22:49:57.234Z,72.43
2022-12-18T22:52:24.724Z,74.35
2022-12-18T22:54:51.427Z,92.30
2022-12-18T22:57:20.016Z,65.45
2022-12-18T22:59:46.444Z,78.10
2022-12-18T23:02:13.055Z,69.38
2022-12-18T23:04:39.808Z,87.70
2022-12-18T23:07:06.630Z,72.32
2022-12-18T23:09:33.560Z,70.03
2022-12-18T23:12:00.552Z,62.97
2022-12-18T23:14:27.779Z,57.38
2022-12-18T23:16:54.197Z,87.47
2022-12-18T23:19:21.153Z,56.70
2022-12-18T23:21:50.212Z,62.45
2022-12-18T23:24:16.676Z,71.95
2022-12-18T23:26:43.234Z,77.50
2022-12-18T23:29:09.752Z,69.90
2022-12-18T23:31:37.463Z,80.97
2022-12-18T23:34:04.848Z,65.90
2022-12-18T23:36:34.016Z,58.10
2022-12-18T23:39:15.637Z,79.47
2022-12-18T23:41:59.391Z,58.65
2022-12-18T23:44:26.037Z,61.88
2022-12-18T23:46:52.850Z,62.58
2022-12-18T23:49:19.426Z,59.53
2022-12-18T23:51:45.893Z,57.00
2022-12-18T23:54:12.452Z,61.38
2022-12-18T23:56:38.985Z,60.35
2022-12-18T23:59:05.449Z,72.53
